Time;durP1;ratioP1;P1;durP2;ratioP2;P2;SDS_P1;SDS_P2;PMS_P1;PMS_P2;Temp;Humidity;BMP_temperature;BMP_pressure;BME280_temperature;BME280_humidity;BME280_pressure;Samples;Min_cycle;Max_cycle;Signal;HPM_P1;HPM_P2
2021/07/03 00:01:56;;;;;;;16.03;10.10;;;17.80;99.90;;;;;;4920048;29;20471;-49
2021/07/03 00:04:23;;;;;;;13.33;8.43;;;17.80;99.90;;;;;;4912030;29;20473;-47
2021/07/03 00:06:51;;;;;;;15.80;9.80;;;17.80;99.90;;;;;;4913341;29;20506;-48
2021/07/03 00:09:17;;;;;;;17.90;11.00;;;17.70;99.90;;;;;;4908889;29;20450;-46
2021/07/03 00:11:45;;;;;;;13.73;9.97;;;17.60;99.90;;;;;;4906227;29;20470;-48
2021/07/03 00:14:13;;;;;;;13.93;9.17;;;17.60;99.90;;;;;;4905219;29;20473;-50
2021/07/03 00:16:40;;;;;;;13.33;9.90;;;17.60;99.90;;;;;;4911202;29;20467;-52
2021/07/03 00:19:07;;;;;;;16.40;11.57;;;17.60;99.90;;;;;;4918110;29;20486;-46
2021/07/03 00:21:37;;;;;;;12.97;9.77;;;17.60;99.90;;;;;;4907166;29;20442;-51
2021/07/03 00:24:06;;;;;;;15.83;10.00;;;17.60;99.90;;;;;;4905101;29;20459;-53
2021/07/03 00:26:33;;;;;;;12.27;9.37;;;17.60;99.90;;;;;;4908643;29;20456;-50
2021/07/03 00:28:59;;;;;;;17.03;11.30;;;17.50;99.90;;;;;;4914397;29;20442;-51
2021/07/03 00:31:26;;;;;;;14.33;11.47;;;17.50;99.90;;;;;;4907010;29;20445;-53
2021/07/03 00:33:53;;;;;;;15.83;11.03;;;17.50;99.90;;;;;;4904886;29;20467;-51
2021/07/03 00:36:19;;;;;;;14.47;11.93;;;17.50;99.90;;;;;;4909801;29;20451;-50
2021/07/03 00:38:46;;;;;;;15.30;11.60;;;17.50;99.90;;;;;;4913867;29;20502;-52
2021/07/03 00:41:14;;;;;;;13.00;11.40;;;17.50;99.90;;;;;;4903551;29;20491;-49
2021/07/03 00:43:41;;;;;;;14.40;11.70;;;17.50;99.90;;;;;;4902526;29;20540;-44
2021/07/03 00:46:08;;;;;;;15.27;11.07;;;17.50;99.90;;;;;;4902026;29;20445;-47
2021/07/03 00:48:34;;;;;;;16.60;11.80;;;17.50;99.90;;;;;;4902879;29;20777;-49
2021/07/03 00:51:01;;;;;;;14.73;10.70;;;17.50;99.90;;;;;;4902175;29;20435;-47
2021/07/03 01:01:10;;;;;;;14.57;10.87;;;17.40;99.90;;;;;;5242880;23;20987;-51
2021/07/03 01:06:12;;;;;;;16.60;12.60;;;17.40;99.90;;;;;;5583632;23;20485;-47
2021/07/03 01:08:39;;;;;;;16.60;12.80;;;17.40;99.90;;;;;;4896771;29;20538;-51
2021/07/03 01:11:06;;;;;;;18.23;12.50;;;17.50;99.90;;;;;;4898729;29;20757;-52
2021/07/03 01:13:33;;;;;;;21.00;11.70;;;17.60;99.90;;;;;;4898487;29;20462;-46
2021/07/03 01:15:59;;;;;;;16.00;11.63;;;17.60;99.90;;;;;;4902470;29;20442;-47
2021/07/03 01:18:27;;;;;;;13.37;11.03;;;17.60;99.90;;;;;;4898139;29;20465;-45
2021/07/03 01:20:55;;;;;;;16.17;10.70;;;17.60;99.90;;;;;;4898529;29;20569;-46
2021/07/03 01:23:24;;;;;;;15.07;11.20;;;17.60;99.90;;;;;;4898484;29;20518;-52
2021/07/03 01:25:57;;;;;;;18.90;11.73;;;17.60;99.90;;;;;;4897703;29;20489;-52
2021/07/03 01:28:24;;;;;;;17.80;12.43;;;17.70;99.90;;;;;;4898926;29;20442;-50
2021/07/03 01:30:51;;;;;;;14.90;10.93;;;17.70;99.90;;;;;;4898662;29;20768;-47
2021/07/03 01:33:18;;;;;;;20.20;12.77;;;17.70;99.90;;;;;;4898862;29;20457;-53
2021/07/03 01:35:45;;;;;;;17.30;13.50;;;17.70;99.90;;;;;;4901021;29;20461;-47
2021/07/03 01:38:17;;;;;;;16.10;12.37;;;17.70;99.90;;;;;;4902250;29;20454;-48
2021/07/03 01:40:45;;;;;;;17.57;13.30;;;17.60;99.90;;;;;;4902353;29;20474;-46
2021/07/03 01:43:12;;;;;;;17.57;12.80;;;17.60;99.90;;;;;;4902266;29;20533;-46
2021/07/03 01:45:40;;;;;;;17.30;13.43;;;17.60;99.90;;;;;;4902503;29;20529;-46
2021/07/03 01:48:07;;;;;;;18.70;12.43;;;17.60;99.90;;;;;;4902344;29;20799;-50
2021/07/03 01:50:34;;;;;;;18.60;12.23;;;17.60;99.90;;;;;;4902129;29;20900;-47
2021/07/03 01:53:00;;;;;;;18.00;12.80;;;17.60;99.90;;;;;;4902066;29;20869;-53
2021/07/03 01:55:27;;;;;;;25.33;13.97;;;17.60;99.90;;;;;;4902241;29;20804;-54
2021/07/03 01:57:55;;;;;;;14.90;11.93;;;17.70;99.90;;;;;;4902239;29;20446;-49
2021/07/03 02:00:22;;;;;;;17.67;13.20;;;17.60;99.90;;;;;;4901910;29;20478;-49
2021/07/03 02:02:49;;;;;;;16.43;12.57;;;17.50;99.90;;;;;;4902272;29;20466;-54
2021/07/03 02:05:16;;;;;;;16.10;13.00;;;17.50;99.90;;;;;;4901813;29;20454;-53
2021/07/03 02:07:42;;;;;;;17.07;11.90;;;17.40;99.90;;;;;;4901868;29;20505;-53
2021/07/03 02:10:10;;;;;;;19.80;13.60;;;17.40;99.90;;;;;;4902007;29;20466;-51
2021/07/03 02:12:36;;;;;;;15.70;12.10;;;17.40;99.90;;;;;;4901883;29;20454;-48
2021/07/03 02:15:05;;;;;;;16.13;12.03;;;17.40;99.90;;;;;;4901845;29;20879;-49
2021/07/03 02:17:32;;;;;;;17.83;13.40;;;17.40;99.90;;;;;;4901666;29;20868;-49
2021/07/03 02:19:59;;;;;;;20.83;12.90;;;17.30;99.90;;;;;;4901721;29;20554;-52
2021/07/03 02:22:25;;;;;;;21.90;12.87;;;17.30;99.90;;;;;;4901777;29;20557;-52
2021/07/03 02:24:52;;;;;;;18.53;13.17;;;17.20;99.90;;;;;;4901439;29;20908;-50
2021/07/03 02:27:19;;;;;;;18.60;12.53;;;17.20;99.90;;;;;;4901658;29;20458;-53
2021/07/03 02:29:47;;;;;;;19.97;13.67;;;17.30;99.90;;;;;;4901383;29;20454;-53
2021/07/03 02:32:15;;;;;;;18.70;12.97;;;17.20;99.90;;;;;;4901285;29;20526;-49
2021/07/03 02:34:42;;;;;;;18.57;13.43;;;17.20;99.90;;;;;;4901308;29;20987;-51
2021/07/03 02:37:08;;;;;;;21.00;13.23;;;17.20;99.90;;;;;;4901462;29;20529;-48
2021/07/03 02:42:03;;;;;;;20.43;15.23;;;17.00;99.90;;;;;;4924951;23;20576;-51
2021/07/03 02:44:30;;;;;;;19.03;12.13;;;17.00;99.90;;;;;;4920162;29;20541;-52
2021/07/03 02:46:59;;;;;;;23.53;15.10;;;17.00;99.90;;;;;;4918637;29;20453;-49
2021/07/03 02:49:27;;;;;;;22.23;14.07;;;17.00;99.90;;;;;;4920089;29;20525;-55
2021/07/03 02:51:56;;;;;;;22.83;15.10;;;17.00;99.90;;;;;;4920219;29;20841;-49
2021/07/03 02:54:23;;;;;;;26.10;13.90;;;17.00;99.90;;;;;;4919967;29;20454;-48
2021/07/03 02:56:49;;;;;;;21.23;13.60;;;17.00;99.90;;;;;;4919810;29;20931;-52
2021/07/03 02:59:16;;;;;;;19.70;15.00;;;17.00;99.90;;;;;;4919772;29;20474;-51
2021/07/03 03:01:43;;;;;;;22.03;15.10;;;17.00;99.90;;;;;;4919590;29;20485;-49
2021/07/03 03:04:09;;;;;;;19.87;15.03;;;16.90;99.90;;;;;;4920011;29;20518;-51
2021/07/03 03:06:37;;;;;;;18.50;14.43;;;16.90;99.90;;;;;;4919848;29;20449;-50
2021/07/03 03:09:04;;;;;;;18.30;13.30;;;16.90;99.90;;;;;;4915282;29;20478;-49
2021/07/03 03:11:31;;;;;;;24.13;15.07;;;16.90;99.90;;;;;;4900733;29;20519;-47
2021/07/03 03:13:57;;;;;;;21.60;14.57;;;16.90;99.90;;;;;;4900841;29;20527;-48
2021/07/03 03:16:26;;;;;;;19.73;13.93;;;16.80;99.90;;;;;;4900709;29;20451;-53
2021/07/03 03:18:53;;;;;;;23.33;12.70;;;16.80;99.90;;;;;;4919377;29;20529;-53
2021/07/03 03:21:20;;;;;;;20.97;15.80;;;16.80;99.90;;;;;;4919474;29;20859;-46
2021/07/03 03:23:48;;;;;;;21.60;14.13;;;16.80;99.90;;;;;;4919343;29;20533;-50
2021/07/03 03:26:15;;;;;;;22.67;14.60;;;16.70;99.90;;;;;;4919452;29;20879;-52
2021/07/03 03:28:42;;;;;;;17.50;13.00;;;16.70;99.90;;;;;;4919486;29;20457;-48
2021/07/03 03:31:11;;;;;;;23.97;16.03;;;16.70;99.90;;;;;;4919350;29;20442;-46
2021/07/03 03:33:38;;;;;;;22.23;16.70;;;16.70;99.90;;;;;;4919409;29;20465;-47
2021/07/03 03:36:05;;;;;;;20.40;14.83;;;16.80;99.90;;;;;;4919201;29;20994;-48
2021/07/03 03:38:32;;;;;;;18.43;15.17;;;16.70;99.90;;;;;;4919057;29;20472;-52
2021/07/03 03:41:00;;;;;;;19.37;13.93;;;16.70;99.90;;;;;;4918923;29;20524;-50
2021/07/03 03:43:26;;;;;;;19.60;14.20;;;16.80;99.90;;;;;;4919203;29;20466;-52
2021/07/03 03:45:53;;;;;;;18.07;13.30;;;16.90;99.90;;;;;;4919250;29;20453;-48
2021/07/03 03:48:20;;;;;;;28.73;14.93;;;16.90;99.90;;;;;;4919178;29;20469;-45
2021/07/03 03:50:47;;;;;;;23.57;14.40;;;16.90;99.90;;;;;;4919104;29;20462;-49
2021/07/03 03:53:13;;;;;;;25.10;15.00;;;16.70;99.90;;;;;;4918736;29;20979;-51
2021/07/03 03:55:40;;;;;;;20.73;15.57;;;16.70;99.90;;;;;;4918680;29;20438;-47
2021/07/03 03:58:08;;;;;;;23.73;16.87;;;16.70;99.90;;;;;;4918261;29;20453;-50
2021/07/03 04:00:34;;;;;;;22.90;15.97;;;16.70;99.90;;;;;;4918889;29;20485;-53
2021/07/03 04:03:01;;;;;;;22.43;14.90;;;16.70;99.90;;;;;;4918591;29;20489;-49
2021/07/03 04:05:28;;;;;;;29.57;17.33;;;16.60;99.90;;;;;;4918581;29;20449;-47
2021/07/03 04:07:55;;;;;;;21.13;16.00;;;16.70;99.90;;;;;;4918952;29;20556;-51
2021/07/03 04:10:21;;;;;;;20.47;14.17;;;16.70;99.90;;;;;;4918795;29;20453;-52
2021/07/03 04:12:48;;;;;;;19.70;15.43;;;16.80;99.90;;;;;;4918719;29;20453;-47
2021/07/03 04:15:16;;;;;;;23.60;16.57;;;16.80;99.90;;;;;;4918687;29;20453;-48
2021/07/03 04:17:43;;;;;;;22.03;14.67;;;16.80;99.90;;;;;;4918389;29;20473;-51
2021/07/03 04:20:11;;;;;;;17.43;12.93;;;16.80;99.90;;;;;;4918515;29;20493;-51
2021/07/03 04:22:38;;;;;;;20.90;14.27;;;16.80;99.90;;;;;;4918576;29;20468;-53
2021/07/03 04:25:08;;;;;;;29.70;15.70;;;16.90;99.90;;;;;;4918382;29;20461;-50
2021/07/03 04:27:34;;;;;;;20.40;14.70;;;16.90;99.90;;;;;;4918502;29;20529;-48
2021/07/03 04:30:01;;;;;;;20.63;14.87;;;17.10;99.90;;;;;;4918144;29;20434;-51
2021/07/03 04:32:29;;;;;;;19.67;14.40;;;17.10;99.90;;;;;;4918301;29;20449;-49
2021/07/03 04:34:56;;;;;;;24.27;15.30;;;17.10;99.90;;;;;;4918020;29;20951;-52
2021/07/03 04:37:23;;;;;;;21.83;15.73;;;17.20;99.90;;;;;;4918252;29;20790;-49
2021/07/03 04:39:50;;;;;;;19.20;13.60;;;17.20;99.90;;;;;;4918009;29;20461;-48
2021/07/03 04:42:17;;;;;;;20.80;14.67;;;17.30;99.90;;;;;;4901560;29;20830;-46
2021/07/03 04:44:43;;;;;;;24.30;15.17;;;17.30;99.90;;;;;;4917950;29;21158;-50
2021/07/03 04:47:10;;;;;;;21.57;15.70;;;17.30;99.90;;;;;;4917873;29;20462;-49
2021/07/03 04:49:38;;;;;;;20.77;16.10;;;17.40;99.90;;;;;;4917838;29;20458;-50
2021/07/03 04:52:05;;;;;;;21.53;15.20;;;17.50;99.90;;;;;;4918152;29;20513;-52
2021/07/03 04:54:32;;;;;;;23.87;15.10;;;17.50;99.90;;;;;;4918007;29;20457;-53
2021/07/03 04:57:10;;;;;;;24.90;16.00;;;17.50;99.90;;;;;;4918068;29;20863;-51
2021/07/03 04:59:38;;;;;;;19.87;14.53;;;17.60;99.90;;;;;;4917677;29;20453;-49
2021/07/03 05:02:06;;;;;;;19.53;15.37;;;17.60;99.90;;;;;;4917856;29;20477;-50
2021/07/03 05:04:34;;;;;;;22.97;16.20;;;17.60;99.90;;;;;;4917978;29;20513;-52
2021/07/03 05:07:02;;;;;;;18.50;14.73;;;17.60;99.90;;;;;;4917679;29;20466;-54
2021/07/03 05:09:31;;;;;;;18.47;13.57;;;17.70;99.90;;;;;;4921777;29;20476;-47
2021/07/03 05:11:58;;;;;;;19.23;14.87;;;17.80;99.90;;;;;;4940302;29;20437;-51
2021/07/03 05:14:25;;;;;;;19.83;15.00;;;17.90;99.90;;;;;;4940681;29;20446;-54
2021/07/03 05:16:52;;;;;;;22.40;16.40;;;17.90;99.90;;;;;;4941209;29;20461;-53
2021/07/03 05:19:19;;;;;;;19.67;15.23;;;17.90;99.90;;;;;;4940991;29;20457;-53
2021/07/03 05:21:45;;;;;;;17.47;13.10;;;18.00;99.90;;;;;;4941063;29;20485;-50
2021/07/03 05:24:14;;;;;;;21.33;15.40;;;18.00;99.90;;;;;;4940839;29;20454;-51
2021/07/03 05:26:44;;;;;;;19.90;15.23;;;18.10;99.90;;;;;;4941207;29;20434;-54
2021/07/03 05:29:11;;;;;;;21.17;16.10;;;18.10;99.90;;;;;;4941350;29;20458;-54
2021/07/03 05:31:37;;;;;;;24.77;15.23;;;18.20;99.90;;;;;;4941010;29;20450;-54
2021/07/03 05:34:04;;;;;;;21.67;14.43;;;18.30;99.90;;;;;;4940832;29;20435;-54
2021/07/03 05:36:31;;;;;;;20.30;14.03;;;18.30;99.90;;;;;;4941347;29;20475;-55
2021/07/03 05:38:57;;;;;;;19.63;14.10;;;18.30;99.90;;;;;;4940564;29;20536;-52
2021/07/03 05:41:27;;;;;;;19.80;15.07;;;18.40;99.90;;;;;;4940664;29;20511;-56
2021/07/03 05:43:54;;;;;;;21.50;14.50;;;18.40;99.90;;;;;;4939431;29;20449;-56
2021/07/03 05:46:23;;;;;;;18.20;14.53;;;18.50;99.90;;;;;;4958078;29;20469;-51
2021/07/03 05:48:50;;;;;;;17.33;13.90;;;18.50;99.90;;;;;;4960850;29;20433;-48
2021/07/03 08:11:10;;;;;;;9.63;8.63;;;29.50;89.00;;;;;;5533310;23;20493;-49
2021/07/03 08:13:37;;;;;;;12.27;9.50;;;30.20;84.90;;;;;;4918620;29;20760;-50
2021/07/03 08:16:04;;;;;;;11.70;9.30;;;30.30;80.70;;;;;;4918718;29;20450;-51
2021/07/03 08:18:31;;;;;;;11.87;10.60;;;29.80;82.00;;;;;;4918673;29;20526;-46
2021/07/03 08:20:58;;;;;;;10.90;9.60;;;28.90;85.70;;;;;;4918431;29;20481;-50
2021/07/03 08:23:24;;;;;;;10.20;9.07;;;27.70;90.40;;;;;;4918370;29;20453;-50
2021/07/03 08:25:51;;;;;;;10.67;9.57;;;26.20;94.50;;;;;;4918266;29;20524;-54
2021/07/03 08:28:19;;;;;;;10.00;9.00;;;25.40;97.40;;;;;;4918158;29;20517;-49
2021/07/03 08:30:46;;;;;;;12.60;9.10;;;24.90;99.90;;;;;;4918157;29;20434;-51
2021/07/03 08:33:13;;;;;;;15.33;10.67;;;25.30;99.90;;;;;;4918332;29;20497;-52
2021/07/03 08:35:39;;;;;;;14.07;10.23;;;25.80;99.90;;;;;;4918136;29;20785;-49
2021/07/03 08:38:06;;;;;;;11.13;9.47;;;25.80;99.90;;;;;;4918420;29;20776;-54
2021/07/03 08:40:33;;;;;;;13.97;10.03;;;25.80;99.90;;;;;;4917786;29;20903;-48
2021/07/03 08:42:59;;;;;;;13.90;10.37;;;25.50;99.90;;;;;;4918183;29;20466;-52
2021/07/03 08:45:27;;;;;;;10.80;9.70;;;24.80;99.90;;;;;;4918046;29;20449;-48
2021/07/03 08:47:54;;;;;;;15.47;11.20;;;24.40;99.90;;;;;;4918062;29;20453;-47
2021/07/03 08:50:21;;;;;;;9.20;8.30;;;25.00;99.90;;;;;;4917930;29;20511;-46
2021/07/03 08:52:49;;;;;;;10.73;9.63;;;26.10;99.90;;;;;;4917912;29;20457;-51
2021/07/03 08:55:18;;;;;;;11.90;8.70;;;27.50;99.60;;;;;;4917747;29;20461;-53
2021/07/03 08:57:49;;;;;;;10.20;8.87;;;28.90;94.40;;;;;;4917778;29;21094;-51
2021/07/03 09:00:19;;;;;;;12.60;9.47;;;29.90;90.30;;;;;;4915814;29;20859;-51
2021/07/03 09:02:48;;;;;;;10.10;9.10;;;30.30;83.00;;;;;;4907493;29;20806;-47
2021/07/03 09:05:24;;;;;;;10.80;9.10;;;29.70;82.00;;;;;;4917979;29;20529;-47
2021/07/03 09:07:51;;;;;;;11.33;9.60;;;28.70;85.60;;;;;;4904704;29;20458;-49
2021/07/03 09:10:22;;;;;;;10.13;9.13;;;28.20;88.00;;;;;;4899029;29;20957;-48
2021/07/03 09:12:51;;;;;;;11.77;9.60;;;28.30;90.10;;;;;;4898999;29;20935;-48
2021/07/03 09:15:19;;;;;;;9.50;8.60;;;28.20;90.40;;;;;;4899337;29;20538;-52
2021/07/03 09:17:49;;;;;;;9.27;8.37;;;27.60;91.30;;;;;;4898952;29;20955;-49
2021/07/03 09:20:26;;;;;;;8.50;7.70;;;26.70;90.20;;;;;;4914716;29;20438;-50
2021/07/03 09:51:24;;;;;;;9.93;7.17;;;29.60;80.20;;;;;;5546974;23;20814;-54
2021/07/03 09:56:41;;;;;;;11.30;9.20;;;30.60;75.60;;;;;;5426857;23;20485;-51
2021/07/03 09:59:11;;;;;;;8.73;7.47;;;31.00;70.80;;;;;;4924662;29;20466;-50
2021/07/03 10:01:40;;;;;;;9.37;8.37;;;31.10;70.40;;;;;;4923982;29;20486;-47
2021/07/03 10:04:07;;;;;;;9.97;8.40;;;30.80;69.50;;;;;;4906453;29;20466;-47
2021/07/03 10:06:43;;;;;;;9.77;8.77;;;29.90;71.60;;;;;;4907396;29;20453;-51
2021/07/03 10:09:13;;;;;;;9.00;7.07;;;29.00;74.50;;;;;;4921535;29;20460;-50
2021/07/03 11:25:05;;;;;;;7.80;7.10;;;27.00;80.30;;;;;;5436415;23;20487;-53
2021/07/03 11:27:34;;;;;;;6.87;6.17;;;26.50;81.10;;;;;;4863021;29;20452;-48
2021/07/03 11:30:03;;;;;;;6.43;5.83;;;26.00;82.80;;;;;;4863045;29;20501;-47
2021/07/03 11:32:30;;;;;;;7.77;7.07;;;25.60;84.10;;;;;;4878645;29;20467;-47
2021/07/03 11:34:58;;;;;;;9.53;6.67;;;25.30;85.90;;;;;;4881224;29;20443;-48
2021/07/03 11:37:27;;;;;;;8.93;8.13;;;25.00;88.30;;;;;;4881546;29;20456;-47
2021/07/03 11:39:54;;;;;;;6.87;6.10;;;24.80;90.90;;;;;;4881707;29;20451;-47
2021/07/03 11:42:29;;;;;;;6.93;6.33;;;24.80;91.30;;;;;;4881669;29;20779;-45
2021/07/03 11:44:56;;;;;;;11.77;7.27;;;24.90;92.40;;;;;;4880169;29;20448;-47
2021/07/03 11:47:33;;;;;;;7.20;6.50;;;25.00;92.50;;;;;;4881452;29;20455;-48
2021/07/03 11:50:00;;;;;;;7.43;6.70;;;25.40;91.90;;;;;;4880517;29;20820;-50
2021/07/03 11:52:28;;;;;;;6.60;5.93;;;25.90;90.80;;;;;;4881577;29;20460;-51
2021/07/03 11:55:05;;;;;;;7.77;6.30;;;26.20;90.00;;;;;;4881117;29;20503;-50
2021/07/03 11:57:40;;;;;;;11.50;5.80;;;26.60;87.60;;;;;;4879025;29;20455;-50
2021/07/03 12:00:08;;;;;;;7.60;6.80;;;26.70;83.50;;;;;;4880891;29;20500;-49
2021/07/03 12:02:37;;;;;;;6.73;5.70;;;26.80;83.40;;;;;;4881013;29;20484;-49
2021/07/03 12:05:05;;;;;;;6.63;5.77;;;26.80;85.40;;;;;;4881090;29;20511;-48
2021/07/03 12:07:32;;;;;;;7.13;6.53;;;26.80;84.10;;;;;;4880867;29;20463;-52
2021/07/03 12:10:03;;;;;;;9.00;6.30;;;26.70;84.80;;;;;;4880644;29;20824;-49
2021/07/03 12:12:30;;;;;;;6.20;5.50;;;26.40;81.10;;;;;;4878973;29;20480;-47
2021/07/03 12:15:02;;;;;;;6.23;5.33;;;25.90;82.90;;;;;;4880854;29;20464;-49
2021/07/03 12:17:29;;;;;;;10.43;6.90;;;25.60;84.50;;;;;;4880909;29;20452;-56
2021/07/03 12:20:07;;;;;;;7.67;6.63;;;25.30;85.90;;;;;;4880412;29;20519;-50
2021/07/03 12:22:34;;;;;;;7.00;5.83;;;25.20;86.70;;;;;;4880519;29;20479;-53
2021/07/03 12:25:12;;;;;;;8.80;6.03;;;25.10;88.70;;;;;;4875104;29;20546;-48
2021/07/03 12:27:41;;;;;;;6.50;5.87;;;25.20;90.20;;;;;;4867313;29;20516;-53
2021/07/03 12:30:10;;;;;;;7.50;6.80;;;25.20;90.50;;;;;;4862169;29;20518;-47
2021/07/03 12:32:37;;;;;;;8.77;6.63;;;25.20;90.30;;;;;;4862201;29;20524;-51
2021/07/03 12:35:11;;;;;;;7.40;6.63;;;25.20;89.60;;;;;;4872286;29;20552;-51
2021/07/03 12:37:37;;;;;;;8.43;6.17;;;25.10;90.30;;;;;;4880724;29;20789;-49
2021/07/03 12:40:15;;;;;;;7.43;5.80;;;25.00;89.60;;;;;;4880839;29;20762;-53
2021/07/03 12:42:42;;;;;;;6.80;5.57;;;25.10;90.60;;;;;;4881015;29;20471;-50
2021/07/03 12:45:11;;;;;;;7.53;5.83;;;25.50;90.40;;;;;;4879841;29;20515;-50
2021/07/03 12:47:39;;;;;;;9.73;6.87;;;25.90;90.50;;;;;;4880394;29;20455;-50
2021/07/03 12:50:08;;;;;;;7.37;5.90;;;25.90;87.30;;;;;;4879731;29;20539;-52
2021/07/03 12:52:36;;;;;;;7.10;6.37;;;26.00;85.80;;;;;;4879914;29;20443;-51
2021/07/03 12:55:03;;;;;;;9.10;6.80;;;26.00;87.10;;;;;;4880017;29;20451;-52
2021/07/03 12:57:38;;;;;;;6.20;5.60;;;26.10;86.40;;;;;;4878834;29;20531;-51
2021/07/03 13:00:07;;;;;;;7.67;6.30;;;26.10;85.80;;;;;;4876057;29;20488;-47
2021/07/03 13:02:35;;;;;;;7.67;6.10;;;26.30;86.50;;;;;;4879525;29;20483;-51
2021/07/03 13:05:04;;;;;;;11.00;6.17;;;26.50;88.80;;;;;;4879983;29;20466;-48
2021/07/03 13:07:30;;;;;;;6.40;5.80;;;26.50;85.90;;;;;;4877308;29;20785;-52
2021/07/03 13:09:57;;;;;;;9.63;6.20;;;26.60;85.70;;;;;;4878870;29;20911;-47
2021/07/03 13:12:24;;;;;;;6.60;5.97;;;26.70;85.90;;;;;;4878329;29;20535;-48
2021/07/03 13:14:51;;;;;;;7.00;6.33;;;26.70;84.40;;;;;;4877530;29;21089;-51
2021/07/03 13:17:20;;;;;;;8.30;6.13;;;26.90;82.60;;;;;;4877697;29;20963;-50
2021/07/03 13:19:48;;;;;;;10.03;5.30;;;26.90;79.40;;;;;;4879819;29;20503;-50
2021/07/03 13:22:14;;;;;;;8.13;6.03;;;26.60;76.30;;;;;;4879927;29;20503;-51
2021/07/03 13:24:41;;;;;;;6.70;6.10;;;26.30;77.90;;;;;;4879875;29;20532;-48
2021/07/03 13:27:08;;;;;;;8.70;5.37;;;26.10;79.60;;;;;;4880153;29;20514;-48
2021/07/03 13:29:34;;;;;;;6.50;5.90;;;26.10;79.80;;;;;;4880147;29;20933;-50
2021/07/03 13:32:01;;;;;;;6.67;5.40;;;26.30;82.60;;;;;;4883116;29;20929;-48
2021/07/03 13:34:28;;;;;;;6.10;5.50;;;26.50;80.90;;;;;;4884183;29;20786;-54
2021/07/03 13:36:56;;;;;;;7.07;5.87;;;26.60;79.10;;;;;;4884041;29;20459;-50
2021/07/03 13:39:22;;;;;;;6.20;5.53;;;26.70;77.90;;;;;;4883838;29;20459;-49
2021/07/03 13:41:49;;;;;;;5.87;5.27;;;26.80;80.60;;;;;;4882288;29;20505;-48
2021/07/03 13:44:16;;;;;;;5.90;5.30;;;26.90;76.50;;;;;;4883661;29;20459;-50
2021/07/03 13:46:42;;;;;;;6.90;5.30;;;27.00;73.60;;;;;;4883900;29;20816;-49
2021/07/03 13:49:09;;;;;;;5.10;4.70;;;27.10;74.70;;;;;;4883554;29;20456;-48
2021/07/03 13:51:36;;;;;;;6.20;5.50;;;27.10;72.40;;;;;;4884354;29;20530;-52
2021/07/03 13:54:06;;;;;;;5.47;4.97;;;26.80;72.20;;;;;;4884109;29;20941;-52
2021/07/03 13:56:33;;;;;;;5.80;5.20;;;26.60;72.70;;;;;;4883954;29;20478;-60
2021/07/03 13:59:03;;;;;;;5.23;4.70;;;26.50;72.50;;;;;;4883994;29;20454;-54
2021/07/03 14:01:30;;;;;;;8.83;5.03;;;26.60;72.40;;;;;;4883723;29;20467;-49
2021/07/03 14:03:57;;;;;;;5.30;4.80;;;26.40;71.40;;;;;;4883640;29;20525;-49
2021/07/03 14:06:23;;;;;;;6.43;4.90;;;26.30;72.40;;;;;;4883825;29;20463;-51
2021/07/03 14:08:50;;;;;;;5.70;5.20;;;26.40;74.20;;;;;;4883244;29;20447;-52
2021/07/03 14:11:18;;;;;;;7.00;4.87;;;26.60;73.40;;;;;;4883453;29;20455;-49
2021/07/03 14:13:45;;;;;;;6.67;6.07;;;26.70;73.20;;;;;;4883268;29;20455;-50
2021/07/03 14:16:14;;;;;;;6.57;4.60;;;26.90;72.70;;;;;;4883016;29;20450;-50
2021/07/03 14:18:41;;;;;;;5.87;5.27;;;26.80;72.30;;;;;;4883189;29;20463;-54
2021/07/03 14:21:07;;;;;;;6.70;5.17;;;26.60;72.20;;;;;;4883389;29;20839;-53
2021/07/03 14:23:34;;;;;;;6.83;5.37;;;26.30;72.40;;;;;;4883312;29;20479;-49
2021/07/03 14:26:01;;;;;;;7.13;5.20;;;26.40;71.80;;;;;;4882896;29;20483;-54
2021/07/03 14:28:29;;;;;;;5.40;4.77;;;26.60;73.90;;;;;;4882987;29;20468;-52
2021/07/03 14:30:55;;;;;;;5.30;4.80;;;26.70;72.40;;;;;;4883103;29;20458;-50
2021/07/03 14:33:22;;;;;;;5.00;4.50;;;26.80;73.50;;;;;;4882805;29;20447;-49
2021/07/03 14:35:49;;;;;;;5.47;4.97;;;27.00;71.70;;;;;;4883086;29;20471;-51
2021/07/03 14:38:16;;;;;;;5.37;4.87;;;27.10;71.30;;;;;;4894126;29;20509;-50
2021/07/03 14:40:42;;;;;;;5.73;4.73;;;27.20;70.70;;;;;;4906406;29;20932;-51
2021/07/03 14:43:09;;;;;;;5.30;4.80;;;27.20;72.20;;;;;;4906863;29;20883;-53
2021/07/03 14:45:37;;;;;;;5.80;4.60;;;27.20;67.80;;;;;;4906960;29;20460;-47
2021/07/03 14:48:06;;;;;;;6.30;4.90;;;27.20;66.70;;;;;;4907129;29;20458;-50
2021/07/03 14:50:36;;;;;;;5.70;4.00;;;27.10;66.90;;;;;;4907216;29;20486;-48
2021/07/03 14:53:03;;;;;;;5.27;4.43;;;26.90;67.10;;;;;;4908250;29;20918;-49
2021/07/03 14:55:32;;;;;;;4.87;3.90;;;26.90;68.20;;;;;;4907897;29;20439;-50
2021/07/03 14:57:59;;;;;;;5.90;4.63;;;26.90;67.60;;;;;;4907787;29;20469;-52
2021/07/03 15:00:26;;;;;;;5.00;4.50;;;26.80;67.20;;;;;;4908885;29;20458;-54
2021/07/03 15:02:54;;;;;;;5.67;4.47;;;26.70;67.90;;;;;;4908805;29;20474;-48
2021/07/03 15:05:21;;;;;;;4.50;4.10;;;26.80;69.70;;;;;;4909681;29;20454;-50
2021/07/03 15:07:48;;;;;;;4.90;4.43;;;26.90;67.50;;;;;;4908069;29;20570;-53
2021/07/03 15:10:15;;;;;;;5.17;4.67;;;26.90;66.20;;;;;;4907477;29;20450;-52
2021/07/03 15:12:42;;;;;;;5.00;4.40;;;26.80;65.60;;;;;;4907972;29;20475;-49
2021/07/03 15:15:09;;;;;;;6.07;4.60;;;26.70;66.50;;;;;;4907187;29;20955;-50
2021/07/03 15:17:36;;;;;;;5.43;4.93;;;26.60;67.20;;;;;;4908775;29;20502;-54
2021/07/03 15:20:05;;;;;;;5.00;4.03;;;26.60;68.80;;;;;;4908580;29;20450;-49
2021/07/03 15:22:32;;;;;;;4.53;4.13;;;26.50;66.80;;;;;;4908017;29;20790;-51
2021/07/03 15:25:07;;;;;;;4.87;4.40;;;26.40;67.30;;;;;;4899376;29;20491;-49
2021/07/03 15:27:34;;;;;;;4.97;4.47;;;26.30;67.90;;;;;;4889333;29;20504;-49
2021/07/03 15:30:00;;;;;;;6.40;5.53;;;26.40;68.90;;;;;;4889518;29;20455;-49
2021/07/03 15:32:27;;;;;;;4.57;4.17;;;26.40;68.90;;;;;;4889642;29;20459;-51
2021/07/03 15:34:53;;;;;;;4.60;4.20;;;26.40;67.30;;;;;;4890015;29;20468;-51
2021/07/03 15:37:23;;;;;;;4.70;4.30;;;26.40;67.30;;;;;;4889190;29;20455;-50
2021/07/03 15:39:50;;;;;;;5.43;4.93;;;26.40;67.90;;;;;;4889035;29;20467;-50
2021/07/03 15:42:17;;;;;;;5.77;4.37;;;26.50;68.30;;;;;;4889352;29;20516;-53
2021/07/03 15:44:43;;;;;;;7.03;4.50;;;26.50;68.70;;;;;;4889415;29;20452;-51
2021/07/03 15:47:10;;;;;;;5.60;5.00;;;26.50;68.50;;;;;;4888696;29;20555;-50
2021/07/03 15:49:37;;;;;;;4.90;4.40;;;26.50;66.50;;;;;;4888330;29;20479;-51
2021/07/03 15:52:04;;;;;;;4.87;4.37;;;26.50;66.90;;;;;;4888943;29;20487;-52
2021/07/03 15:54:32;;;;;;;6.00;4.43;;;26.50;66.80;;;;;;4887897;29;20464;-53
2021/07/03 15:56:59;;;;;;;7.63;4.27;;;26.40;66.60;;;;;;4888066;29;20564;-50
2021/07/03 15:59:25;;;;;;;4.80;4.27;;;26.20;66.90;;;;;;4887834;29;20782;-51
2021/07/03 16:01:52;;;;;;;3.97;3.57;;;26.10;66.80;;;;;;4887731;29;20475;-50
2021/07/03 16:04:19;;;;;;;7.27;4.63;;;26.00;67.00;;;;;;4888695;29;20524;-49
2021/07/03 16:06:45;;;;;;;5.60;4.03;;;26.00;67.40;;;;;;4888864;29;20447;-50
2021/07/03 16:09:12;;;;;;;17.30;13.23;;;26.00;68.90;;;;;;4889674;29;20511;-49
2021/07/03 16:11:40;;;;;;;94.00;61.73;;;26.10;69.90;;;;;;4889115;29;20456;-51
2021/07/03 16:14:07;;;;;;;14.23;10.87;;;26.10;70.40;;;;;;4888985;29;20455;-52
2021/07/03 16:16:34;;;;;;;5.20;4.70;;;26.20;71.00;;;;;;4888233;29;20539;-53
2021/07/03 16:19:01;;;;;;;10.33;5.10;;;26.20;69.50;;;;;;4887845;29;20455;-52
2021/07/03 16:21:27;;;;;;;6.33;3.87;;;26.10;68.50;;;;;;4887595;29;20527;-54
2021/07/03 16:23:54;;;;;;;5.70;4.83;;;26.00;68.50;;;;;;4888250;29;20552;-50
2021/07/03 16:26:21;;;;;;;4.80;4.40;;;25.80;68.20;;;;;;4906273;29;20494;-52
2021/07/03 16:28:49;;;;;;;5.03;4.50;;;25.60;69.60;;;;;;4907921;29;20932;-52
2021/07/03 16:31:18;;;;;;;6.63;3.80;;;25.40;69.80;;;;;;4906699;29;20514;-52
2021/07/03 16:33:45;;;;;;;4.97;4.07;;;25.40;69.90;;;;;;4907354;29;20466;-54
2021/07/03 16:36:12;;;;;;;6.37;4.80;;;25.30;71.00;;;;;;4906691;29;20451;-53
2021/07/03 16:38:38;;;;;;;4.63;4.10;;;25.30;71.10;;;;;;4907497;29;20455;-53
2021/07/03 16:41:07;;;;;;;5.63;4.43;;;25.30;71.10;;;;;;4907341;29;20463;-48
2021/07/03 16:43:35;;;;;;;5.17;4.40;;;25.40;72.30;;;;;;4907346;29;20493;-51
2021/07/03 16:46:03;;;;;;;5.43;4.77;;;25.40;71.50;;;;;;4907251;29;20455;-51
2021/07/03 16:48:33;;;;;;;6.07;4.80;;;25.40;71.00;;;;;;4906881;29;20502;-50
2021/07/03 16:51:00;;;;;;;4.07;3.73;;;25.50;72.90;;;;;;4906846;29;20504;-47
2021/07/03 16:53:26;;;;;;;5.40;4.20;;;25.40;72.90;;;;;;4908103;29;20446;-48
2021/07/03 16:55:53;;;;;;;10.23;5.43;;;25.50;73.00;;;;;;4908300;29;20537;-51